sensor_id;sensor_type;location;lat;lon;timestamp;temperature;humidity
34985;DHT22;21190;58.750;17.004;2023-07-16T00:00:03;18.70;99.90
34985;DHT22;21190;58.750;17.004;2023-07-16T00:02:31;18.70;99.90
34985;DHT22;21190;58.750;17.004;2023-07-16T00:04:58;18.70;99.90
34985;DHT22;21190;58.750;17.004;2023-07-16T00:07:25;18.70;99.90
34985;DHT22;21190;58.750;17.004;2023-07-16T00:09:52;18.70;99.90
34985;DHT22;21190;58.750;17.004;2023-07-16T00:12:19;18.70;99.90
34985;DHT22;21190;58.750;17.004;2023-07-16T00:14:47;18.70;99.90
34985;DHT22;21190;58.750;17.004;2023-07-16T00:17:14;18.80;99.90
34985;DHT22;21190;58.750;17.004;2023-07-16T00:19:41;18.70;99.90
34985;DHT22;21190;58.750;17.004;2023-07-16T00:22:08;18.80;99.90
34985;DHT22;21190;58.750;17.004;2023-07-16T00:24:35;18.80;99.90
34985;DHT22;21190;58.750;17.004;2023-07-16T00:27:02;18.80;99.90
34985;DHT22;21190;58.750;17.004;2023-07-16T00:29:30;18.80;99.90
34985;DHT22;21190;58.750;17.004;2023-07-16T00:31:57;18.80;99.90
34985;DHT22;21190;58.750;17.004;2023-07-16T00:34:24;18.80;99.90
34985;DHT22;21190;58.750;17.004;2023-07-16T00:36:51;18.80;99.90
34985;DHT22;21190;58.750;17.004;2023-07-16T00:39:18;18.80;99.90
34985;DHT22;21190;58.750;17.004;2023-07-16T00:41:45;18.80;99.90
34985;DHT22;21190;58.750;17.004;2023-07-16T00:44:12;18.80;99.90
34985;DHT22;21190;58.750;17.004;2023-07-16T00:46:39;18.80;99.90
34985;DHT22;21190;58.750;17.004;2023-07-16T00:49:06;18.70;99.90
34985;DHT22;21190;58.750;17.004;2023-07-16T00:51:33;18.70;99.90
34985;DHT22;21190;58.750;17.004;2023-07-16T00:54:01;18.70;99.90
34985;DHT22;21190;58.750;17.004;2023-07-16T00:56:28;18.80;99.90
34985;DHT22;21190;58.750;17.004;2023-07-16T00:58:56;18.80;99.90
34985;DHT22;21190;58.750;17.004;2023-07-16T01:01:22;18.80;99.90
34985;DHT22;21190;58.750;17.004;2023-07-16T01:03:49;18.80;99.90
34985;DHT22;21190;58.750;17.004;2023-07-16T01:06:40;18.80;99.90
34985;DHT22;21190;58.750;17.004;2023-07-16T01:09:14;18.80;99.90
34985;DHT22;21190;58.750;17.004;2023-07-16T01:11:42;18.80;99.90
34985;DHT22;21190;58.750;17.004;2023-07-16T01:14:12;18.80;99.90
34985;DHT22;21190;58.750;17.004;2023-07-16T01:16:41;18.90;99.90
34985;DHT22;21190;58.750;17.004;2023-07-16T01:19:09;18.90;99.90
34985;DHT22;21190;58.750;17.004;2023-07-16T01:24:59;18.80;99.90
34985;DHT22;21190;58.750;17.004;2023-07-16T01:30:04;18.80;99.90
34985;DHT22;21190;58.750;17.004;2023-07-16T01:32:32;18.80;99.90
34985;DHT22;21190;58.750;17.004;2023-07-16T01:35:00;18.90;99.90
34985;DHT22;21190;58.750;17.004;2023-07-16T01:37:27;18.90;99.90
34985;DHT22;21190;58.750;17.004;2023-07-16T01:39:54;18.90;99.90
34985;DHT22;21190;58.750;17.004;2023-07-16T01:42:22;19.00;99.90
34985;DHT22;21190;58.750;17.004;2023-07-16T01:44:49;18.90;99.90
34985;DHT22;21190;58.750;17.004;2023-07-16T01:50:17;18.70;99.90
34985;DHT22;21190;58.750;17.004;2023-07-16T01:52:44;18.70;99.90
34985;DHT22;21190;58.750;17.004;2023-07-16T01:55:11;18.60;99.90
34985;DHT22;21190;58.750;17.004;2023-07-16T01:57:38;18.50;99.90
34985;DHT22;21190;58.750;17.004;2023-07-16T02:00:06;18.40;99.90
34985;DHT22;21190;58.750;17.004;2023-07-16T02:02:34;18.30;99.90
34985;DHT22;21190;58.750;17.004;2023-07-16T02:05:01;18.30;99.90
34985;DHT22;21190;58.750;17.004;2023-07-16T02:07:28;18.20;99.90
34985;DHT22;21190;58.750;17.004;2023-07-16T02:09:55;18.10;99.90
34985;DHT22;21190;58.750;17.004;2023-07-16T02:12:22;18.10;99.90
34985;DHT22;21190;58.750;17.004;2023-07-16T02:14:49;18.10;99.90
34985;DHT22;21190;58.750;17.004;2023-07-16T02:17:16;18.00;99.90
34985;DHT22;21190;58.750;17.004;2023-07-16T02:19:43;18.10;99.90
34985;DHT22;21190;58.750;17.004;2023-07-16T02:22:10;18.00;99.90
34985;DHT22;21190;58.750;17.004;2023-07-16T02:24:36;18.00;99.90
34985;DHT22;21190;58.750;17.004;2023-07-16T02:27:04;18.00;99.90
34985;DHT22;21190;58.750;17.004;2023-07-16T02:29:32;17.90;99.90
34985;DHT22;21190;58.750;17.004;2023-07-16T02:31:58;17.90;99.90
34985;DHT22;21190;58.750;17.004;2023-07-16T02:34:25;17.90;99.90
34985;DHT22;21190;58.750;17.004;2023-07-16T02:36:52;17.80;99.90
34985;DHT22;21190;58.750;17.004;2023-07-16T02:39:19;17.80;99.90
34985;DHT22;21190;58.750;17.004;2023-07-16T02:41:46;17.70;99.90
34985;DHT22;21190;58.750;17.004;2023-07-16T02:44:13;17.70;99.90
34985;DHT22;21190;58.750;17.004;2023-07-16T02:46:40;17.70;99.90
34985;DHT22;21190;58.750;17.004;2023-07-16T02:49:08;17.70;99.90
34985;DHT22;21190;58.750;17.004;2023-07-16T02:51:35;17.60;99.90
34985;DHT22;21190;58.750;17.004;2023-07-16T02:54:02;17.60;99.90
34985;DHT22;21190;58.750;17.004;2023-07-16T02:56:29;17.60;99.90
34985;DHT22;21190;58.750;17.004;2023-07-16T02:58:56;17.50;99.90
34985;DHT22;21190;58.750;17.004;2023-07-16T03:01:23;17.50;99.90
34985;DHT22;21190;58.750;17.004;2023-07-16T03:03:50;17.50;99.90
34985;DHT22;21190;58.750;17.004;2023-07-16T03:06:17;17.50;99.90
34985;DHT22;21190;58.750;17.004;2023-07-16T03:08:48;17.50;99.90
34985;DHT22;21190;58.750;17.004;2023-07-16T03:11:15;17.50;99.90
34985;DHT22;21190;58.750;17.004;2023-07-16T03:13:42;17.50;99.90
34985;DHT22;21190;58.750;17.004;2023-07-16T03:16:09;17.50;99.90
34985;DHT22;21190;58.750;17.004;2023-07-16T03:18:36;17.50;99.90
34985;DHT22;21190;58.750;17.004;2023-07-16T03:21:03;17.60;99.90
34985;DHT22;21190;58.750;17.004;2023-07-16T03:23:30;17.60;99.90
34985;DHT22;21190;58.750;17.004;2023-07-16T03:25:57;17.50;99.90
34985;DHT22;21190;58.750;17.004;2023-07-16T03:28:24;17.50;99.90
34985;DHT22;21190;58.750;17.004;2023-07-16T03:30:51;17.50;99.90
34985;DHT22;21190;58.750;17.004;2023-07-16T03:33:19;17.50;99.90
34985;DHT22;21190;58.750;17.004;2023-07-16T03:35:47;17.50;99.90
34985;DHT22;21190;58.750;17.004;2023-07-16T03:38:14;17.50;99.90
34985;DHT22;21190;58.750;17.004;2023-07-16T03:40:47;17.50;99.90
34985;DHT22;21190;58.750;17.004;2023-07-16T03:43:16;17.40;99.90
34985;DHT22;21190;58.750;17.004;2023-07-16T03:45:43;17.40;99.90
34985;DHT22;21190;58.750;17.004;2023-07-16T03:48:10;17.50;99.90
34985;DHT22;21190;58.750;17.004;2023-07-16T03:50:37;17.40;99.90
34985;DHT22;21190;58.750;17.004;2023-07-16T03:53:04;17.40;99.90
34985;DHT22;21190;58.750;17.004;2023-07-16T03:55:31;17.40;99.90
34985;DHT22;21190;58.750;17.004;2023-07-16T03:57:58;17.40;99.90
34985;DHT22;21190;58.750;17.004;2023-07-16T04:00:25;17.50;99.90
34985;DHT22;21190;58.750;17.004;2023-07-16T04:02:51;17.60;99.90
34985;DHT22;21190;58.750;17.004;2023-07-16T04:05:19;17.60;99.90
34985;DHT22;21190;58.750;17.004;2023-07-16T04:07:50;17.60;99.90
34985;DHT22;21190;58.750;17.004;2023-07-16T04:10:17;17.70;99.90
34985;DHT22;21190;58.750;17.004;2023-07-16T04:12:44;17.70;99.90
34985;DHT22;21190;58.750;17.004;2023-07-16T04:15:11;17.70;99.90
34985;DHT22;21190;58.750;17.004;2023-07-16T04:17:38;17.70;99.90
34985;DHT22;21190;58.750;17.004;2023-07-16T04:20:06;17.70;99.90
34985;DHT22;21190;58.750;17.004;2023-07-16T04:22:36;17.70;99.90
34985;DHT22;21190;58.750;17.004;2023-07-16T04:25:03;17.80;99.90
34985;DHT22;21190;58.750;17.004;2023-07-16T04:27:31;17.80;99.90
34985;DHT22;21190;58.750;17.004;2023-07-16T04:29:58;17.80;99.90
34985;DHT22;21190;58.750;17.004;2023-07-16T04:32:25;17.90;99.90
34985;DHT22;21190;58.750;17.004;2023-07-16T04:34:52;17.90;99.90
34985;DHT22;21190;58.750;17.004;2023-07-16T04:37:19;17.90;99.90
34985;DHT22;21190;58.750;17.004;2023-07-16T04:39:46;17.90;99.90
34985;DHT22;21190;58.750;17.004;2023-07-16T04:42:13;17.90;99.90
34985;DHT22;21190;58.750;17.004;2023-07-16T04:44:40;18.00;99.90
34985;DHT22;21190;58.750;17.004;2023-07-16T04:47:06;18.00;99.90
34985;DHT22;21190;58.750;17.004;2023-07-16T04:49:34;18.00;99.90
34985;DHT22;21190;58.750;17.004;2023-07-16T04:52:02;17.90;99.90
34985;DHT22;21190;58.750;17.004;2023-07-16T04:54:29;17.90;99.90
34985;DHT22;21190;58.750;17.004;2023-07-16T04:56:56;18.00;99.90
34985;DHT22;21190;58.750;17.004;2023-07-16T04:59:23;18.00;99.90
34985;DHT22;21190;58.750;17.004;2023-07-16T05:01:49;18.00;99.90
34985;DHT22;21190;58.750;17.004;2023-07-16T05:04:16;18.10;99.90
34985;DHT22;21190;58.750;17.004;2023-07-16T05:06:43;18.10;99.90
34985;DHT22;21190;58.750;17.004;2023-07-16T05:09:10;18.10;99.90
34985;DHT22;21190;58.750;17.004;2023-07-16T05:11:37;18.20;99.90
34985;DHT22;21190;58.750;17.004;2023-07-16T05:14:05;18.30;99.90
34985;DHT22;21190;58.750;17.004;2023-07-16T05:16:32;18.30;99.90
34985;DHT22;21190;58.750;17.004;2023-07-16T05:18:59;18.40;99.90
34985;DHT22;21190;58.750;17.004;2023-07-16T05:21:26;18.40;99.90
34985;DHT22;21190;58.750;17.004;2023-07-16T05:23:53;18.50;99.90
34985;DHT22;21190;58.750;17.004;2023-07-16T05:26:20;18.50;99.90
34985;DHT22;21190;58.750;17.004;2023-07-16T05:28:46;18.50;99.90
34985;DHT22;21190;58.750;17.004;2023-07-16T05:31:13;18.70;99.90
34985;DHT22;21190;58.750;17.004;2023-07-16T05:33:40;18.70;99.90
34985;DHT22;21190;58.750;17.004;2023-07-16T05:36:07;18.70;99.90
34985;DHT22;21190;58.750;17.004;2023-07-16T05:38:34;18.70;99.90
34985;DHT22;21190;58.750;17.004;2023-07-16T05:41:02;18.70;99.90
34985;DHT22;21190;58.750;17.004;2023-07-16T05:43:29;18.70;99.90
34985;DHT22;21190;58.750;17.004;2023-07-16T05:45:56;18.70;99.90
34985;DHT22;21190;58.750;17.004;2023-07-16T05:48:24;18.80;99.90
34985;DHT22;21190;58.750;17.004;2023-07-16T05:50:51;18.80;99.90
34985;DHT22;21190;58.750;17.004;2023-07-16T05:53:18;18.80;99.90
34985;DHT22;21190;58.750;17.004;2023-07-16T05:55:45;18.80;99.90
34985;DHT22;21190;58.750;17.004;2023-07-16T05:58:12;18.80;99.90
34985;DHT22;21190;58.750;17.004;2023-07-16T06:00:39;18.80;99.90
34985;DHT22;21190;58.750;17.004;2023-07-16T06:03:06;18.80;99.90
34985;DHT22;21190;58.750;17.004;2023-07-16T06:05:33;18.80;99.90
34985;DHT22;21190;58.750;17.004;2023-07-16T06:08:01;18.80;99.90
34985;DHT22;21190;58.750;17.004;2023-07-16T06:10:28;18.80;99.90
34985;DHT22;21190;58.750;17.004;2023-07-16T06:12:55;18.80;99.90
34985;DHT22;21190;58.750;17.004;2023-07-16T06:15:22;18.80;99.90
34985;DHT22;21190;58.750;17.004;2023-07-16T06:17:49;18.80;99.90
34985;DHT22;21190;58.750;17.004;2023-07-16T06:20:16;18.90;99.90
34985;DHT22;21190;58.750;17.004;2023-07-16T06:22:43;18.90;99.90
34985;DHT22;21190;58.750;17.004;2023-07-16T06:25:10;18.90;99.90
34985;DHT22;21190;58.750;17.004;2023-07-16T06:27:37;18.90;99.90
34985;DHT22;21190;58.750;17.004;2023-07-16T06:30:05;18.90;99.90
34985;DHT22;21190;58.750;17.004;2023-07-16T06:32:32;18.90;99.90
34985;DHT22;21190;58.750;17.004;2023-07-16T06:34:59;18.90;99.90
34985;DHT22;21190;58.750;17.004;2023-07-16T06:37:26;18.90;99.90
34985;DHT22;21190;58.750;17.004;2023-07-16T06:39:53;18.80;99.90
34985;DHT22;21190;58.750;17.004;2023-07-16T06:42:20;18.80;99.90
34985;DHT22;21190;58.750;17.004;2023-07-16T06:44:47;18.80;99.90
34985;DHT22;21190;58.750;17.004;2023-07-16T06:47:14;18.80;99.90
34985;DHT22;21190;58.750;17.004;2023-07-16T06:49:42;18.80;99.90
34985;DHT22;21190;58.750;17.004;2023-07-16T06:52:18;18.80;99.90
34985;DHT22;21190;58.750;17.004;2023-07-16T06:54:46;18.80;99.90
34985;DHT22;21190;58.750;17.004;2023-07-16T06:57:13;18.70;99.90
34985;DHT22;21190;58.750;17.004;2023-07-16T06:59:40;18.70;99.90
34985;DHT22;21190;58.750;17.004;2023-07-16T07:02:07;18.70;99.90
34985;DHT22;21190;58.750;17.004;2023-07-16T07:04:34;18.70;99.90
34985;DHT22;21190;58.750;17.004;2023-07-16T07:07:01;18.70;99.90
34985;DHT22;21190;58.750;17.004;2023-07-16T07:09:28;18.80;99.90
34985;DHT22;21190;58.750;17.004;2023-07-16T07:11:54;18.80;99.90
34985;DHT22;21190;58.750;17.004;2023-07-16T07:14:21;18.80;99.90
34985;DHT22;21190;58.750;17.004;2023-07-16T07:16:48;18.80;99.90
34985;DHT22;21190;58.750;17.004;2023-07-16T07:19:15;18.80;99.90
34985;DHT22;21190;58.750;17.004;2023-07-16T07:21:42;18.80;99.90
34985;DHT22;21190;58.750;17.004;2023-07-16T07:24:09;18.80;99.90
34985;DHT22;21190;58.750;17.004;2023-07-16T07:26:36;18.90;99.90
34985;DHT22;21190;58.750;17.004;2023-07-16T07:29:03;18.90;99.90
34985;DHT22;21190;58.750;17.004;2023-07-16T07:31:30;18.90;99.90
34985;DHT22;21190;58.750;17.004;2023-07-16T07:33:57;18.90;99.90
34985;DHT22;21190;58.750;17.004;2023-07-16T07:36:25;18.90;99.90
34985;DHT22;21190;58.750;17.004;2023-07-16T07:38:52;18.90;99.90
34985;DHT22;21190;58.750;17.004;2023-07-16T07:41:19;18.80;99.90
34985;DHT22;21190;58.750;17.004;2023-07-16T07:43:46;18.80;99.90
34985;DHT22;21190;58.750;17.004;2023-07-16T07:46:12;18.90;99.90
34985;DHT22;21190;58.750;17.004;2023-07-16T07:48:40;18.90;99.90
34985;DHT22;21190;58.750;17.004;2023-07-16T07:51:07;18.90;99.90
34985;DHT22;21190;58.750;17.004;2023-07-16T07:53:33;18.90;99.90
34985;DHT22;21190;58.750;17.004;2023-07-16T07:56:00;18.90;99.90
34985;DHT22;21190;58.750;17.004;2023-07-16T07:58:27;18.90;99.90
34985;DHT22;21190;58.750;17.004;2023-07-16T08:00:54;18.90;99.90
34985;DHT22;21190;58.750;17.004;2023-07-16T08:03:21;18.80;99.90
34985;DHT22;21190;58.750;17.004;2023-07-16T08:05:49;18.80;99.90
34985;DHT22;21190;58.750;17.004;2023-07-16T08:08:16;18.80;99.90
34985;DHT22;21190;58.750;17.004;2023-07-16T08:10:43;18.70;99.90
34985;DHT22;21190;58.750;17.004;2023-07-16T08:13:12;18.60;99.90
34985;DHT22;21190;58.750;17.004;2023-07-16T08:15:39;18.50;99.90
34985;DHT22;21190;58.750;17.004;2023-07-16T08:18:06;18.40;99.90
34985;DHT22;21190;58.750;17.004;2023-07-16T08:20:35;18.40;99.90
34985;DHT22;21190;58.750;17.004;2023-07-16T08:23:02;18.30;99.90
34985;DHT22;21190;58.750;17.004;2023-07-16T08:25:29;18.20;99.90
34985;DHT22;21190;58.750;17.004;2023-07-16T08:27:56;18.10;99.90
34985;DHT22;21190;58.750;17.004;2023-07-16T08:30:23;18.10;99.90
34985;DHT22;21190;58.750;17.004;2023-07-16T08:32:50;18.00;99.90
34985;DHT22;21190;58.750;17.004;2023-07-16T08:35:17;18.00;99.90
34985;DHT22;21190;58.750;17.004;2023-07-16T08:37:46;18.00;99.90
34985;DHT22;21190;58.750;17.004;2023-07-16T08:40:13;18.00;99.90
34985;DHT22;21190;58.750;17.004;2023-07-16T08:42:44;18.00;99.90
34985;DHT22;21190;58.750;17.004;2023-07-16T08:45:12;18.00;99.90
34985;DHT22;21190;58.750;17.004;2023-07-16T08:47:39;18.00;99.90
34985;DHT22;21190;58.750;17.004;2023-07-16T08:50:06;18.00;99.90
34985;DHT22;21190;58.750;17.004;2023-07-16T08:52:33;18.00;99.90
34985;DHT22;21190;58.750;17.004;2023-07-16T08:55:00;18.00;99.90
34985;DHT22;21190;58.750;17.004;2023-07-16T08:57:28;18.00;99.90
34985;DHT22;21190;58.750;17.004;2023-07-16T08:59:56;18.10;99.90
34985;DHT22;21190;58.750;17.004;2023-07-16T09:02:23;18.00;99.90
34985;DHT22;21190;58.750;17.004;2023-07-16T09:04:50;18.00;99.90
34985;DHT22;21190;58.750;17.004;2023-07-16T09:07:18;18.00;99.90
34985;DHT22;21190;58.750;17.004;2023-07-16T09:09:56;18.00;99.90
34985;DHT22;21190;58.750;17.004;2023-07-16T09:12:27;18.00;99.90
34985;DHT22;21190;58.750;17.004;2023-07-16T09:14:56;18.00;99.90
34985;DHT22;21190;58.750;17.004;2023-07-16T09:17:24;18.00;99.90
34985;DHT22;21190;58.750;17.004;2023-07-16T09:19:52;18.00;99.90
34985;DHT22;21190;58.750;17.004;2023-07-16T09:22:19;18.00;99.90
34985;DHT22;21190;58.750;17.004;2023-07-16T09:24:47;18.00;99.90
34985;DHT22;21190;58.750;17.004;2023-07-16T09:27:14;18.00;99.90
34985;DHT22;21190;58.750;17.004;2023-07-16T09:29:41;18.10;99.90
34985;DHT22;21190;58.750;17.004;2023-07-16T09:32:08;18.00;99.90
34985;DHT22;21190;58.750;17.004;2023-07-16T09:34:35;18.00;99.90
34985;DHT22;21190;58.750;17.004;2023-07-16T09:37:04;18.00;99.90
34985;DHT22;21190;58.750;17.004;2023-07-16T09:39:33;18.00;99.90
34985;DHT22;21190;58.750;17.004;2023-07-16T09:42:01;18.00;99.90
34985;DHT22;21190;58.750;17.004;2023-07-16T09:44:29;17.90;99.90
34985;DHT22;21190;58.750;17.004;2023-07-16T09:46:57;17.90;99.90
34985;DHT22;21190;58.750;17.004;2023-07-16T09:49:27;17.90;99.90
34985;DHT22;21190;58.750;17.004;2023-07-16T09:51:57;17.90;99.90
34985;DHT22;21190;58.750;17.004;2023-07-16T09:54:25;17.90;99.90
34985;DHT22;21190;58.750;17.004;2023-07-16T09:56:58;17.90;99.90
34985;DHT22;21190;58.750;17.004;2023-07-16T09:59:29;17.90;99.90
34985;DHT22;21190;58.750;17.004;2023-07-16T10:01:57;17.90;99.90
34985;DHT22;21190;58.750;17.004;2023-07-16T10:04:24;17.90;99.90
34985;DHT22;21190;58.750;17.004;2023-07-16T10:09:50;17.90;99.90
34985;DHT22;21190;58.750;17.004;2023-07-16T10:12:19;17.90;99.90
34985;DHT22;21190;58.750;17.004;2023-07-16T10:14:50;17.90;99.90
34985;DHT22;21190;58.750;17.004;2023-07-16T10:17:23;17.90;99.90
34985;DHT22;21190;58.750;17.004;2023-07-16T10:19:58;17.90;99.90
34985;DHT22;21190;58.750;17.004;2023-07-16T10:25:29;17.90;99.90
34985;DHT22;21190;58.750;17.004;2023-07-16T10:27:56;18.00;99.90
34985;DHT22;21190;58.750;17.004;2023-07-16T10:30:23;17.90;99.90
34985;DHT22;21190;58.750;17.004;2023-07-16T10:32:51;17.90;99.90
34985;DHT22;21190;58.750;17.004;2023-07-16T10:35:21;17.90;99.90
34985;DHT22;21190;58.750;17.004;2023-07-16T10:37:48;17.90;99.90
34985;DHT22;21190;58.750;17.004;2023-07-16T10:40:16;18.00;99.90
34985;DHT22;21190;58.750;17.004;2023-07-16T10:42:43;18.00;99.90
34985;DHT22;21190;58.750;17.004;2023-07-16T10:45:11;18.00;99.90
34985;DHT22;21190;58.750;17.004;2023-07-16T10:47:40;18.10;99.90
34985;DHT22;21190;58.750;17.004;2023-07-16T10:50:19;18.10;99.90
34985;DHT22;21190;58.750;17.004;2023-07-16T10:52:55;18.20;99.90
34985;DHT22;21190;58.750;17.004;2023-07-16T10:55:23;18.30;99.90
34985;DHT22;21190;58.750;17.004;2023-07-16T10:57:50;18.50;99.90
34985;DHT22;21190;58.750;17.004;2023-07-16T11:00:18;18.50;99.90
34985;DHT22;21190;58.750;17.004;2023-07-16T11:02:45;18.60;99.90
34985;DHT22;21190;58.750;17.004;2023-07-16T11:05:14;18.70;99.90
34985;DHT22;21190;58.750;17.004;2023-07-16T11:07:47;18.70;99.90
34985;DHT22;21190;58.750;17.004;2023-07-16T11:10:20;18.80;99.90
34985;DHT22;21190;58.750;17.004;2023-07-16T11:12:51;18.90;99.90
34985;DHT22;21190;58.750;17.004;2023-07-16T11:15:29;19.00;99.90
34985;DHT22;21190;58.750;17.004;2023-07-16T11:17:57;19.10;99.90
34985;DHT22;21190;58.750;17.004;2023-07-16T11:20:24;19.10;99.90
34985;DHT22;21190;58.750;17.004;2023-07-16T11:22:51;19.10;99.90
34985;DHT22;21190;58.750;17.004;2023-07-16T11:25:18;19.10;99.90
34985;DHT22;21190;58.750;17.004;2023-07-16T11:27:49;19.00;99.90
34985;DHT22;21190;58.750;17.004;2023-07-16T11:30:23;19.00;99.90
34985;DHT22;21190;58.750;17.004;2023-07-16T11:32:51;19.00;99.90
34985;DHT22;21190;58.750;17.004;2023-07-16T11:35:19;19.10;99.90
34985;DHT22;21190;58.750;17.004;2023-07-16T11:37:46;19.10;99.90
34985;DHT22;21190;58.750;17.004;2023-07-16T11:40:18;19.20;99.90
34985;DHT22;21190;58.750;17.004;2023-07-16T11:42:46;19.20;99.90
34985;DHT22;21190;58.750;17.004;2023-07-16T11:45:23;19.30;99.90
34985;DHT22;21190;58.750;17.004;2023-07-16T11:47:53;19.30;99.90
34985;DHT22;21190;58.750;17.004;2023-07-16T11:50:30;19.30;99.90
34985;DHT22;21190;58.750;17.004;2023-07-16T11:53:00;19.40;99.90
34985;DHT22;21190;58.750;17.004;2023-07-16T11:55:28;19.40;99.90
34985;DHT22;21190;58.750;17.004;2023-07-16T11:57:55;19.40;99.90
34985;DHT22;21190;58.750;17.004;2023-07-16T12:00:23;19.50;99.90
34985;DHT22;21190;58.750;17.004;2023-07-16T12:02:50;19.60;99.90
34985;DHT22;21190;58.750;17.004;2023-07-16T12:05:22;19.60;99.90
34985;DHT22;21190;58.750;17.004;2023-07-16T12:08:10;19.60;99.90
34985;DHT22;21190;58.750;17.004;2023-07-16T12:10:41;19.60;99.90
34985;DHT22;21190;58.750;17.004;2023-07-16T12:13:08;19.60;99.90
34985;DHT22;21190;58.750;17.004;2023-07-16T12:15:35;19.70;99.90
34985;DHT22;21190;58.750;17.004;2023-07-16T12:18:02;19.70;99.90
34985;DHT22;21190;58.750;17.004;2023-07-16T12:20:30;19.70;99.90
34985;DHT22;21190;58.750;17.004;2023-07-16T12:22:57;19.80;99.90
34985;DHT22;21190;58.750;17.004;2023-07-16T12:25:24;19.90;99.90
34985;DHT22;21190;58.750;17.004;2023-07-16T12:27:51;20.00;99.90
34985;DHT22;21190;58.750;17.004;2023-07-16T12:30:21;20.00;99.90
34985;DHT22;21190;58.750;17.004;2023-07-16T12:32:48;20.10;99.90
34985;DHT22;21190;58.750;17.004;2023-07-16T12:35:15;20.20;99.90
34985;DHT22;21190;58.750;17.004;2023-07-16T12:37:42;20.20;99.90
34985;DHT22;21190;58.750;17.004;2023-07-16T12:40:09;20.30;99.90
34985;DHT22;21190;58.750;17.004;2023-07-16T12:42:36;20.30;99.90
34985;DHT22;21190;58.750;17.004;2023-07-16T12:45:04;20.30;99.90
34985;DHT22;21190;58.750;17.004;2023-07-16T12:47:31;20.30;99.90
34985;DHT22;21190;58.750;17.004;2023-07-16T12:49:58;20.40;99.90
34985;DHT22;21190;58.750;17.004;2023-07-16T12:52:25;20.50;99.90
34985;DHT22;21190;58.750;17.004;2023-07-16T12:54:52;20.50;99.90
34985;DHT22;21190;58.750;17.004;2023-07-16T12:57:23;20.50;99.90
34985;DHT22;21190;58.750;17.004;2023-07-16T12:59:50;20.50;99.90
34985;DHT22;21190;58.750;17.004;2023-07-16T13:02:17;20.50;99.90
34985;DHT22;21190;58.750;17.004;2023-07-16T13:04:44;20.50;99.90
34985;DHT22;21190;58.750;17.004;2023-07-16T13:07:11;20.50;99.90
34985;DHT22;21190;58.750;17.004;2023-07-16T13:09:39;20.50;99.90
34985;DHT22;21190;58.750;17.004;2023-07-16T13:12:07;20.50;99.90
34985;DHT22;21190;58.750;17.004;2023-07-16T13:14:34;20.50;99.90
34985;DHT22;21190;58.750;17.004;2023-07-16T13:17:01;20.50;99.90
34985;DHT22;21190;58.750;17.004;2023-07-16T13:19:28;20.50;99.90
34985;DHT22;21190;58.750;17.004;2023-07-16T13:21:55;20.50;99.90
34985;DHT22;21190;58.750;17.004;2023-07-16T13:24:22;20.60;99.90
34985;DHT22;21190;58.750;17.004;2023-07-16T13:26:49;20.60;99.90
34985;DHT22;21190;58.750;17.004;2023-07-16T13:29:16;20.60;99.90
34985;DHT22;21190;58.750;17.004;2023-07-16T13:31:43;20.60;99.90
34985;DHT22;21190;58.750;17.004;2023-07-16T13:34:10;20.50;99.90
34985;DHT22;21190;58.750;17.004;2023-07-16T13:36:37;20.50;99.90
34985;DHT22;21190;58.750;17.004;2023-07-16T13:39:04;20.50;99.90
34985;DHT22;21190;58.750;17.004;2023-07-16T13:41:31;20.50;99.90
34985;DHT22;21190;58.750;17.004;2023-07-16T13:43:58;20.50;99.90
34985;DHT22;21190;58.750;17.004;2023-07-16T13:46:25;20.60;99.90
34985;DHT22;21190;58.750;17.004;2023-07-16T13:48:52;20.70;99.90
34985;DHT22;21190;58.750;17.004;2023-07-16T13:51:25;20.70;99.90
34985;DHT22;21190;58.750;17.004;2023-07-16T13:53:52;20.70;99.90
34985;DHT22;21190;58.750;17.004;2023-07-16T13:56:19;20.80;99.90
34985;DHT22;21190;58.750;17.004;2023-07-16T13:58:47;20.80;99.90
34985;DHT22;21190;58.750;17.004;2023-07-16T14:01:14;20.70;99.90
34985;DHT22;21190;58.750;17.004;2023-07-16T14:03:41;20.70;99.90
34985;DHT22;21190;58.750;17.004;2023-07-16T14:06:09;20.70;99.90
34985;DHT22;21190;58.750;17.004;2023-07-16T14:08:35;20.70;99.90
34985;DHT22;21190;58.750;17.004;2023-07-16T14:11:03;20.80;99.90
34985;DHT22;21190;58.750;17.004;2023-07-16T14:13:30;20.80;99.90
34985;DHT22;21190;58.750;17.004;2023-07-16T14:15:57;20.70;99.90
34985;DHT22;21190;58.750;17.004;2023-07-16T14:18:24;20.70;99.90
34985;DHT22;21190;58.750;17.004;2023-07-16T14:20:51;20.70;99.90
34985;DHT22;21190;58.750;17.004;2023-07-16T14:23:18;20.70;99.90
34985;DHT22;21190;58.750;17.004;2023-07-16T14:25:45;20.80;99.90
34985;DHT22;21190;58.750;17.004;2023-07-16T14:28:12;20.80;99.90
34985;DHT22;21190;58.750;17.004;2023-07-16T14:30:39;20.80;99.90
34985;DHT22;21190;58.750;17.004;2023-07-16T14:33:06;20.80;99.90
34985;DHT22;21190;58.750;17.004;2023-07-16T14:35:33;20.90;99.90
34985;DHT22;21190;58.750;17.004;2023-07-16T14:38:04;20.90;99.90
34985;DHT22;21190;58.750;17.004;2023-07-16T14:40:31;21.00;99.90
34985;DHT22;21190;58.750;17.004;2023-07-16T14:42:58;21.10;99.90
34985;DHT22;21190;58.750;17.004;2023-07-16T14:45:25;21.10;99.90
34985;DHT22;21190;58.750;17.004;2023-07-16T14:47:53;21.10;99.90
34985;DHT22;21190;58.750;17.004;2023-07-16T14:50:20;21.10;99.90
34985;DHT22;21190;58.750;17.004;2023-07-16T14:52:47;21.00;99.90
34985;DHT22;21190;58.750;17.004;2023-07-16T14:55:14;20.90;99.90
34985;DHT22;21190;58.750;17.004;2023-07-16T14:57:42;20.90;99.90
34985;DHT22;21190;58.750;17.004;2023-07-16T15:00:09;21.00;99.90
34985;DHT22;21190;58.750;17.004;2023-07-16T15:02:38;21.10;99.90
34985;DHT22;21190;58.750;17.004;2023-07-16T15:05:05;21.10;99.90
34985;DHT22;21190;58.750;17.004;2023-07-16T15:07:34;21.20;99.90
34985;DHT22;21190;58.750;17.004;2023-07-16T15:10:05;21.30;99.90
34985;DHT22;21190;58.750;17.004;2023-07-16T15:12:32;21.40;99.90
34985;DHT22;21190;58.750;17.004;2023-07-16T15:14:59;21.40;99.90
34985;DHT22;21190;58.750;17.004;2023-07-16T15:17:26;21.30;99.90
34985;DHT22;21190;58.750;17.004;2023-07-16T15:19:54;21.30;99.90
34985;DHT22;21190;58.750;17.004;2023-07-16T15:22:21;21.40;99.90
34985;DHT22;21190;58.750;17.004;2023-07-16T15:24:49;21.60;99.90
34985;DHT22;21190;58.750;17.004;2023-07-16T15:27:16;21.70;99.90
34985;DHT22;21190;58.750;17.004;2023-07-16T15:29:43;21.80;99.90
34985;DHT22;21190;58.750;17.004;2023-07-16T15:32:10;21.90;99.90